createdAt,value
2019-04-30T00:00:55.395Z,95.0195
2019-04-30T00:02:00.878Z,94.8302
2019-04-30T00:03:06.852Z,95.2529
2019-04-30T00:04:12.847Z,94.6853
2019-04-30T00:05:18.850Z,94.5891
2019-04-30T00:06:27.325Z,94.3832
2019-04-30T00:07:35.724Z,94.4152
2019-04-30T00:08:45.149Z,94.3358
2019-04-30T00:09:54.048Z,94.4091
2019-04-30T00:11:00.847Z,95.1690
2019-04-30T00:12:05.939Z,94.9630
2019-04-30T00:13:17.505Z,95.2468
2019-04-30T00:14:22.907Z,95.8297
2019-04-30T00:15:27.218Z,96.2585
2019-04-30T00:16:36.348Z,95.9701
2019-04-30T00:17:45.606Z,96.7117
2019-04-30T00:18:59.927Z,96.0525
2019-04-30T00:20:01.883Z,96.0403
2019-04-30T00:21:10.003Z,96.6583
2019-04-30T00:22:30.521Z,96.9451
2019-04-30T00:23:30.715Z,96.7987
2019-04-30T00:24:39.840Z,96.0937
2019-04-30T00:25:46.826Z,95.8144
2019-04-30T00:26:52.483Z,95.0683
2019-04-30T00:28:00.357Z,95.5581
2019-04-30T00:29:08.167Z,95.7824
2019-04-30T00:30:15.466Z,95.5688
2019-04-30T00:31:23.862Z,95.5779
2019-04-30T00:32:30.210Z,95.3841
2019-04-30T00:33:35.871Z,95.6191
2019-04-30T00:34:40.252Z,95.9152
2019-04-30T00:35:49.711Z,95.7061
2019-04-30T00:36:56.207Z,95.8419
2019-04-30T00:38:01.933Z,95.7473
2019-04-30T00:39:13.183Z,95.2621
2019-04-30T00:40:21.752Z,96.0449
2019-04-30T00:41:30.177Z,96.6751
2019-04-30T00:42:35.923Z,95.5413
2019-04-30T00:43:46.476Z,95.0500
2019-04-30T00:44:52.110Z,94.3175
2019-04-30T00:45:58.173Z,94.6929
2019-04-30T00:47:04.918Z,94.8821
2019-04-30T00:48:19.828Z,95.1507
2019-04-30T00:49:26.531Z,95.4162
2019-04-30T00:50:33.952Z,94.0993
2019-04-30T00:51:41.799Z,94.2138
2019-04-30T00:52:46.330Z,95.4681
2019-04-30T00:53:52.584Z,94.7707
2019-04-30T00:55:00.361Z,94.7219
2019-04-30T00:56:07.922Z,94.3008
2019-04-30T00:57:15.164Z,94.7021
2019-04-30T00:58:28.538Z,95.0927
2019-04-30T00:59:30.856Z,94.7753
2019-04-30T01:00:37.165Z,93.8781
2019-04-30T01:01:43.572Z,93.2464
2019-04-30T01:02:52.879Z,93.1975
2019-04-30T01:03:57.973Z,93.4401
2019-04-30T01:05:08.623Z,93.3074
2019-04-30T01:06:17.133Z,93.3608
2019-04-30T01:07:23.837Z,93.1380
2019-04-30T01:08:28.842Z,92.5200
2019-04-30T01:09:35.414Z,92.9824
2019-04-30T01:10:40.929Z,93.6080
2019-04-30T01:11:48.105Z,92.5139
2019-04-30T01:12:53.928Z,93.4340
2019-04-30T01:13:59.881Z,92.4590
2019-04-30T01:15:06.717Z,92.7443
2019-04-30T01:16:15.954Z,92.9046
2019-04-30T01:17:21.951Z,93.9422
2019-04-30T01:18:31.822Z,93.7865
2019-04-30T01:19:39.531Z,93.8567
2019-04-30T01:20:44.704Z,93.9162
2019-04-30T01:21:50.927Z,94.7799
2019-04-30T01:22:58.568Z,94.0017
2019-04-30T01:24:03.864Z,94.1207
2019-04-30T01:25:13.294Z,95.1324
2019-04-30T01:26:18.743Z,95.4208
2019-04-30T01:27:23.809Z,94.5006
2019-04-30T01:28:29.116Z,94.9493
2019-04-30T01:29:40.914Z,95.0500
2019-04-30T01:30:45.025Z,95.2468
2019-04-30T01:31:50.985Z,94.6517
2019-04-30T01:32:58.148Z,94.3557
2019-04-30T01:34:12.357Z,95.0011
2019-04-30T01:35:15.913Z,94.9218
2019-04-30T01:36:21.890Z,95.1736
2019-04-30T01:37:31.359Z,95.3994
2019-04-30T01:38:40.075Z,95.4681
2019-04-30T01:39:45.981Z,95.8938
2019-04-30T01:40:51.874Z,95.2667
2019-04-30T01:41:58.594Z,95.4681
2019-04-30T01:43:04.162Z,95.2834
2019-04-30T01:44:11.925Z,95.8572
2019-04-30T01:45:18.776Z,96.3180
2019-04-30T01:46:25.214Z,96.5148
2019-04-30T01:47:31.381Z,96.0662
2019-04-30T01:48:36.836Z,95.7382
2019-04-30T01:49:44.654Z,96.5621
2019-04-30T01:50:49.866Z,97.1298
2019-04-30T01:51:57.309Z,97.5814
2019-04-30T01:53:04.853Z,97.7600
2019-04-30T01:54:17.947Z,97.3220
2019-04-30T01:55:23.945Z,96.3821
2019-04-30T01:56:30.169Z,95.8343
2019-04-30T01:57:35.879Z,95.3674
2019-04-30T01:58:40.895Z,95.2575
2019-04-30T01:59:48.587Z,95.3109
2019-04-30T02:00:53.937Z,95.6237
2019-04-30T02:01:59.947Z,94.7860
2019-04-30T02:03:05.599Z,94.9554
2019-04-30T02:04:10.218Z,96.5927
2019-04-30T02:05:15.775Z,97.1466
2019-04-30T02:06:20.856Z,97.3709
2019-04-30T02:07:24.853Z,96.9177
2019-04-30T02:08:29.994Z,95.2712
2019-04-30T02:09:35.879Z,94.3358
2019-04-30T02:10:40.854Z,94.2046
2019-04-30T02:11:45.857Z,94.2122
2019-04-30T02:12:51.156Z,95.6970
2019-04-30T02:13:56.867Z,96.0266
2019-04-30T02:15:02.938Z,96.6766
2019-04-30T02:16:08.885Z,95.5901
2019-04-30T02:17:13.937Z,95.1843
2019-04-30T02:18:19.906Z,95.3582
2019-04-30T02:19:25.822Z,95.2163
2019-04-30T02:20:31.831Z,96.2966
2019-04-30T02:21:38.285Z,96.1730
2019-04-30T02:22:43.855Z,97.1527
2019-04-30T02:23:49.335Z,97.6410
2019-04-30T02:24:55.433Z,98.0911
2019-04-30T02:26:00.835Z,98.2055
2019-04-30T02:27:06.226Z,95.5413
2019-04-30T02:28:11.813Z,95.9655
2019-04-30T02:29:16.895Z,95.9289
2019-04-30T02:30:22.835Z,96.0021
2019-04-30T02:31:30.692Z,96.4111
2019-04-30T02:32:39.371Z,97.0367
2019-04-30T02:33:44.811Z,96.1669
2019-04-30T02:34:49.946Z,95.7427
2019-04-30T02:35:55.853Z,96.1303
2019-04-30T02:37:00.919Z,95.9564
2019-04-30T02:38:06.894Z,95.5093
2019-04-30T02:39:11.893Z,95.9533
2019-04-30T02:40:17.047Z,95.1751
2019-04-30T02:41:23.441Z,96.9131
2019-04-30T02:42:29.721Z,95.5352
2019-04-30T02:43:35.916Z,95.3109
2019-04-30T02:44:41.855Z,94.4594
2019-04-30T02:45:49.596Z,94.3420
2019-04-30T02:46:55.216Z,94.9035
2019-04-30T02:48:01.102Z,95.6420
2019-04-30T02:49:07.349Z,96.8689
2019-04-30T02:50:19.840Z,95.6359
2019-04-30T02:51:25.938Z,96.1990
2019-04-30T02:52:31.865Z,95.4299
2019-04-30T02:53:40.192Z,94.7570
2019-04-30T02:54:45.925Z,94.6105
2019-04-30T02:55:51.874Z,94.6029
2019-04-30T02:56:59.558Z,94.6075
2019-04-30T02:58:04.877Z,95.3994
2019-04-30T02:59:10.856Z,95.5032
2019-04-30T03:00:15.837Z,96.0403
2019-04-30T03:01:20.935Z,95.4986
2019-04-30T03:02:29.182Z,95.0500
2019-04-30T03:03:34.888Z,95.1919
2019-04-30T03:04:40.010Z,94.4884
2019-04-30T03:05:45.917Z,94.2626
2019-04-30T03:06:51.225Z,93.9834
2019-04-30T03:07:56.214Z,94.3313
2019-04-30T03:09:01.447Z,94.1222
2019-04-30T03:10:09.780Z,93.9376
2019-04-30T03:11:15.786Z,94.7066
2019-04-30T03:12:21.805Z,94.8806
2019-04-30T03:13:29.720Z,94.1665
2019-04-30T03:14:35.843Z,94.5052
2019-04-30T03:15:41.848Z,94.5663
2019-04-30T03:16:52.577Z,94.3511
2019-04-30T03:17:56.878Z,94.5327
2019-04-30T03:19:02.907Z,94.6212
2019-04-30T03:20:10.656Z,94.8089
2019-04-30T03:21:19.178Z,94.9081
2019-04-30T03:22:24.922Z,94.5068
2019-04-30T03:23:30.230Z,94.4228
2019-04-30T03:24:35.927Z,94.7494
2019-04-30T03:25:41.994Z,95.6924
2019-04-30T03:26:49.668Z,95.3613
2019-04-30T03:27:55.808Z,94.9554
2019-04-30T03:29:01.047Z,95.1110
2019-04-30T03:30:06.830Z,95.8099
2019-04-30T03:31:12.689Z,95.3491
2019-04-30T03:32:22.524Z,94.8409
2019-04-30T03:33:32.603Z,94.4747
2019-04-30T03:34:42.148Z,94.6532
2019-04-30T03:35:53.686Z,93.9162
2019-04-30T03:37:01.621Z,94.0948
2019-04-30T03:38:09.619Z,94.8348
2019-04-30T03:39:15.215Z,95.1873
2019-04-30T03:40:20.290Z,95.9899
2019-04-30T03:41:25.542Z,97.0001
2019-04-30T03:42:30.815Z,95.2514
2019-04-30T03:43:36.623Z,95.2987
2019-04-30T03:44:41.853Z,96.7865
2019-04-30T03:45:49.702Z,96.4874
2019-04-30T03:46:55.929Z,96.3424
2019-04-30T03:48:01.901Z,97.4594
2019-04-30T03:49:10.596Z,97.8103
2019-04-30T03:50:19.838Z,97.8744
2019-04-30T03:51:25.873Z,98.0224
2019-04-30T03:52:30.868Z,98.1689
2019-04-30T03:53:39.685Z,97.9660
2019-04-30T03:54:49.289Z,97.9583
2019-04-30T03:55:55.163Z,97.4487
2019-04-30T03:57:00.864Z,98.0758
2019-04-30T03:58:09.086Z,98.2132
2019-04-30T03:59:14.222Z,98.2910
2019-04-30T04:00:20.393Z,98.5977
2019-04-30T04:01:25.804Z,98.6984
2019-04-30T04:02:30.431Z,98.7396
2019-04-30T04:03:35.900Z,98.8968
2019-04-30T04:04:41.870Z,98.9319
2019-04-30T04:05:49.588Z,99.2431
2019-04-30T04:06:54.904Z,98.9837
2019-04-30T04:08:00.892Z,98.9197
2019-04-30T04:09:06.952Z,97.9202
2019-04-30T04:10:12.834Z,97.2213
2019-04-30T04:11:19.917Z,95.4635
2019-04-30T04:12:25.884Z,95.7504
2019-04-30T04:13:33.120Z,95.7870
2019-04-30T04:14:39.440Z,96.6018
2019-04-30T04:15:44.201Z,96.3592
2019-04-30T04:16:50.931Z,95.5032
2019-04-30T04:17:56.885Z,96.1959
2019-04-30T04:19:03.135Z,97.2793
2019-04-30T04:20:10.738Z,97.2808
2019-04-30T04:21:20.175Z,95.7000
2019-04-30T04:22:25.911Z,95.2804
2019-04-30T04:23:32.812Z,94.6990
2019-04-30T04:24:40.089Z,95.0423
2019-04-30T04:25:45.854Z,95.6283
2019-04-30T04:26:50.811Z,95.3719
2019-04-30T04:27:55.868Z,95.5215
2019-04-30T04:29:00.906Z,95.8709
2019-04-30T04:30:06.840Z,95.8831
2019-04-30T04:31:11.845Z,95.8236
2019-04-30T04:32:16.881Z,96.0296
2019-04-30T04:33:22.918Z,95.6420
2019-04-30T04:34:30.276Z,95.6222
2019-04-30T04:35:35.849Z,96.1593
2019-04-30T04:36:43.315Z,96.3973
2019-04-30T04:37:49.408Z,96.6079
2019-04-30T04:38:54.818Z,96.5881
2019-04-30T04:39:59.868Z,96.4920
2019-04-30T04:41:04.795Z,95.9792
2019-04-30T04:42:10.129Z,96.5805
2019-04-30T04:43:15.914Z,96.1395
2019-04-30T04:44:21.864Z,96.6934
2019-04-30T04:45:27.308Z,96.7346
2019-04-30T04:46:32.856Z,96.7849
2019-04-30T04:47:40.147Z,96.8673
2019-04-30T04:48:45.835Z,96.4157
2019-04-30T04:49:53.942Z,96.6583
2019-04-30T04:51:00.311Z,97.4350
2019-04-30T04:52:05.867Z,97.6501
2019-04-30T04:53:11.750Z,97.4395
2019-04-30T04:54:16.856Z,97.5952
2019-04-30T04:55:22.437Z,97.7600
2019-04-30T04:56:30.253Z,97.9263
2019-04-30T04:57:35.201Z,98.2467
2019-04-30T04:58:40.865Z,98.3093
2019-04-30T04:59:45.818Z,97.6425
2019-04-30T05:00:52.249Z,97.6959
2019-04-30T05:01:59.780Z,98.0575
2019-04-30T05:03:05.903Z,97.9583
2019-04-30T05:04:11.735Z,98.0117
2019-04-30T05:05:19.435Z,98.1445
2019-04-30T05:06:24.949Z,98.2238
2019-04-30T05:07:30.937Z,98.0407
2019-04-30T05:08:36.831Z,97.8836
2019-04-30T05:09:41.894Z,97.7844
2019-04-30T05:10:49.374Z,97.6043
2019-04-30T05:11:54.958Z,97.4182
2019-04-30T05:13:00.903Z,98.0316
2019-04-30T05:14:08.371Z,98.1323
2019-04-30T05:15:15.201Z,98.1537
2019-04-30T05:16:21.320Z,97.9706
2019-04-30T05:17:26.806Z,97.6150
2019-04-30T05:18:32.887Z,97.8698
2019-04-30T05:19:38.868Z,97.3297
2019-04-30T05:20:43.861Z,97.5921
2019-04-30T05:21:51.508Z,97.8241
2019-04-30T05:22:58.485Z,97.4685
2019-04-30T05:24:04.022Z,97.8073
2019-04-30T05:25:09.277Z,97.7874
2019-04-30T05:26:14.959Z,97.8241
2019-04-30T05:27:20.835Z,97.9171
2019-04-30T05:28:25.910Z,97.9843
2019-04-30T05:29:31.837Z,97.4853
2019-04-30T05:30:36.236Z,96.9787
2019-04-30T05:31:41.903Z,96.7178
2019-04-30T05:32:50.398Z,97.1389
2019-04-30T05:33:55.857Z,96.2921
2019-04-30T05:34:59.849Z,96.5011
2019-04-30T05:36:05.205Z,96.2859
2019-04-30T05:37:10.222Z,96.4981
2019-04-30T05:38:16.338Z,95.9152
2019-04-30T05:39:21.858Z,95.4131
2019-04-30T05:40:28.778Z,96.1532
2019-04-30T05:41:33.826Z,94.9142
2019-04-30T05:42:38.918Z,95.6405
2019-04-30T05:43:44.939Z,95.2438
2019-04-30T05:44:49.933Z,95.0881
2019-04-30T05:45:55.811Z,96.0174
2019-04-30T05:47:00.855Z,94.3084
2019-04-30T05:48:06.081Z,93.5714
2019-04-30T05:49:12.586Z,94.3282
2019-04-30T05:50:19.762Z,93.2738
2019-04-30T05:51:26.637Z,89.0074
2019-04-30T05:52:31.942Z,88.8441
2019-04-30T05:53:39.361Z,86.7460
2019-04-30T05:54:45.371Z,88.5130
2019-04-30T05:55:51.241Z,88.9616
2019-04-30T05:56:56.240Z,88.2033
2019-04-30T05:58:02.687Z,88.8075
2019-04-30T05:59:09.023Z,88.4123
2019-04-30T06:00:14.949Z,88.5588
2019-04-30T06:01:20.857Z,88.7968
2019-04-30T06:02:28.049Z,88.9128
2019-04-30T06:03:35.935Z,87.2084
2019-04-30T06:04:41.159Z,88.0064
2019-04-30T06:05:46.851Z,86.3020
2019-04-30T06:06:52.163Z,86.3127
2019-04-30T06:07:59.341Z,86.9581
2019-04-30T06:09:10.616Z,86.5080
2019-04-30T06:10:14.226Z,86.3401
2019-04-30T06:11:20.168Z,86.5827
2019-04-30T06:12:25.792Z,87.1900
2019-04-30T06:13:32.063Z,85.7679
2019-04-30T06:14:48.400Z,85.0401
2019-04-30T06:15:48.978Z,84.8112
2019-04-30T06:16:54.224Z,86.9215
2019-04-30T06:18:06.806Z,83.0518
2019-04-30T06:19:11.366Z,83.4653
2019-04-30T06:20:18.209Z,82.9114
2019-04-30T06:21:24.987Z,83.0106
2019-04-30T06:22:31.224Z,84.8463
2019-04-30T06:23:36.970Z,83.6667
2019-04-30T06:24:42.812Z,82.9419
2019-04-30T06:25:57.554Z,83.4043
2019-04-30T06:26:58.963Z,84.0772
2019-04-30T06:28:04.995Z,83.9261
2019-04-30T06:29:10.806Z,83.8849
2019-04-30T06:30:16.947Z,83.9872
2019-04-30T06:31:32.280Z,83.8392
2019-04-30T06:32:34.192Z,84.1840
2019-04-30T06:33:39.872Z,85.3193
2019-04-30T06:34:45.962Z,85.6657
2019-04-30T06:35:52.326Z,86.1051
2019-04-30T06:36:57.249Z,84.1199
2019-04-30T06:38:02.261Z,83.8636
2019-04-30T06:39:08.673Z,83.7201
2019-04-30T06:40:13.939Z,84.4709
2019-04-30T06:41:20.323Z,82.8199
2019-04-30T06:42:26.054Z,83.3463
2019-04-30T06:43:32.078Z,81.0483
2019-04-30T06:44:41.668Z,80.6409
2019-04-30T06:45:50.898Z,80.7904
2019-04-30T06:46:58.834Z,79.0143
2019-04-30T06:48:08.741Z,79.9069
2019-04-30T06:49:14.914Z,78.7121
2019-04-30T06:50:21.426Z,79.2676
2019-04-30T06:51:30.394Z,80.5341
2019-04-30T06:52:38.879Z,81.3764
2019-04-30T06:53:44.197Z,82.1378
2019-04-30T06:54:51.365Z,83.8483
2019-04-30T06:55:56.234Z,81.4084
2019-04-30T06:57:02.082Z,81.2909
2019-04-30T06:58:14.169Z,82.7131
2019-04-30T06:59:20.357Z,80.5219
2019-04-30T07:00:32.926Z,80.2151
2019-04-30T07:01:38.804Z,80.1724
2019-04-30T07:02:44.901Z,80.7233
2019-04-30T07:03:52.316Z,81.8753
2019-04-30T07:04:59.430Z,79.7833
2019-04-30T07:06:05.708Z,80.6043
2019-04-30T07:07:14.327Z,80.7172
2019-04-30T07:08:35.758Z,79.8993
2019-04-30T07:09:51.136Z,77.1145
2019-04-30T07:10:54.958Z,76.5743
2019-04-30T07:11:56.869Z,80.9873
2019-04-30T07:13:03.448Z,76.5896
2019-04-30T07:14:09.654Z,79.6002
2019-04-30T07:15:14.922Z,78.3703
2019-04-30T07:16:20.913Z,80.7736
2019-04-30T07:17:29.096Z,78.6999
2019-04-30T07:18:34.348Z,79.6460
2019-04-30T07:19:53.370Z,78.8876
2019-04-30T07:20:50.902Z,78.7945
2019-04-30T07:21:55.267Z,79.5651
2019-04-30T07:23:03.361Z,77.8378
2019-04-30T07:24:09.472Z,75.8740
2019-04-30T07:25:15.475Z,76.4736
2019-04-30T07:26:24.408Z,77.3404
2019-04-30T07:27:32.405Z,75.7046
2019-04-30T07:28:46.539Z,76.8582
2019-04-30T07:29:49.836Z,78.1323
2019-04-30T07:31:10.721Z,77.9446
2019-04-30T07:33:29.545Z,74.3984
2019-04-30T07:35:55.271Z,79.2905
2019-04-30T07:37:13.287Z,78.8281
2019-04-30T07:42:00.265Z,72.8603
2019-04-30T07:43:05.270Z,74.0551
2019-04-30T07:44:29.453Z,75.1568
2019-04-30T07:45:25.441Z,75.4025
2019-04-30T07:46:35.253Z,75.5963
2019-04-30T07:47:42.397Z,74.9950
2019-04-30T07:48:50.216Z,73.1670
2019-04-30T07:49:56.038Z,73.0129
2019-04-30T07:51:01.876Z,72.0974
2019-04-30T07:52:10.267Z,71.9188
2019-04-30T07:53:19.710Z,71.9356
2019-04-30T07:54:25.545Z,69.0288
2019-04-30T07:55:30.912Z,67.9759
2019-04-30T07:56:40.519Z,67.7943
2019-04-30T07:57:50.245Z,69.4316
2019-04-30T07:59:00.770Z,69.1295
2019-04-30T08:00:07.209Z,71.9646
2019-04-30T08:01:12.224Z,74.2168
2019-04-30T08:02:17.202Z,72.8695
2019-04-30T08:03:24.503Z,71.6350
2019-04-30T08:04:31.128Z,74.0612
2019-04-30T08:05:40.084Z,72.8664
2019-04-30T08:06:46.151Z,73.6446
2019-04-30T08:07:52.268Z,74.4579
2019-04-30T08:09:00.940Z,70.6401
2019-04-30T08:10:08.744Z,67.4830
2019-04-30T08:11:25.715Z,65.0645
2019-04-30T08:13:49.171Z,69.9992
2019-04-30T08:14:55.332Z,67.8065
2019-04-30T08:16:00.525Z,69.6483
2019-04-30T08:17:06.289Z,70.4219
2019-04-30T08:18:12.061Z,70.5852
2019-04-30T08:19:21.707Z,70.0313
2019-04-30T08:20:26.483Z,74.0734
2019-04-30T08:21:32.635Z,72.7108
2019-04-30T08:26:28.673Z,75.5505
2019-04-30T08:27:34.642Z,76.0266
2019-04-30T08:28:41.121Z,74.0780
2019-04-30T08:29:46.215Z,75.7244
2019-04-30T08:30:51.842Z,74.7524
2019-04-30T08:31:59.196Z,75.3765
2019-04-30T08:34:31.331Z,74.6822
2019-04-30T08:37:16.726Z,73.8552
2019-04-30T08:42:04.702Z,71.7754
2019-04-30T08:43:10.447Z,73.7224
2019-04-30T08:46:49.094Z,72.2805
2019-04-30T08:47:54.423Z,74.9889
2019-04-30T08:49:02.875Z,75.8434
2019-04-30T08:50:11.146Z,73.6904
2019-04-30T08:51:16.558Z,75.0195
2019-04-30T08:53:44.259Z,72.8054
2019-04-30T08:56:09.984Z,73.4691
2019-04-30T08:57:19.110Z,74.4961
2019-04-30T08:58:24.295Z,74.3572
2019-04-30T08:59:30.089Z,74.0246
2019-04-30T09:00:35.265Z,75.2483
2019-04-30T09:01:45.353Z,72.9259
2019-04-30T09:02:50.334Z,71.6075
2019-04-30T09:03:55.245Z,71.0307
2019-04-30T09:05:01.298Z,71.9417
2019-04-30T09:06:06.283Z,72.6497
2019-04-30T09:07:12.754Z,71.1986
2019-04-30T09:08:19.240Z,73.4051
2019-04-30T09:09:25.327Z,71.0063
2019-04-30T09:10:31.145Z,72.6558
2019-04-30T09:11:50.100Z,72.3247
2019-04-30T09:12:52.890Z,71.7845
2019-04-30T09:13:59.452Z,74.1283
2019-04-30T09:16:25.242Z,73.0114
2019-04-30T09:17:33.782Z,73.2357
2019-04-30T09:18:39.928Z,70.3075
2019-04-30T09:19:45.262Z,69.9901
2019-04-30T09:20:53.171Z,72.3796
2019-04-30T09:23:13.730Z,70.2159
2019-04-30T09:24:42.376Z,69.4133
2019-04-30T09:25:49.534Z,68.7144
2019-04-30T09:27:15.487Z,69.2210
2019-04-30T09:29:39.082Z,67.2435
2019-04-30T09:32:01.408Z,66.5446
2019-04-30T09:34:22.952Z,66.7460
2019-04-30T09:35:31.787Z,66.5019
2019-04-30T09:38:01.386Z,66.8696
2019-04-30T09:39:08.955Z,65.1423
2019-04-30T09:40:19.082Z,65.5131
2019-04-30T09:42:52.991Z,67.6051
2019-04-30T09:45:16.347Z,68.2750
2019-04-30T09:46:27.058Z,69.0806
2019-04-30T09:47:33.477Z,69.3645
2019-04-30T09:49:59.723Z,67.5273
2019-04-30T09:51:09.813Z,68.6763
2019-04-30T09:52:19.325Z,70.2098
2019-04-30T09:53:24.298Z,68.0964
2019-04-30T09:54:29.904Z,70.7866
2019-04-30T09:55:35.294Z,71.1131
2019-04-30T09:57:55.392Z,72.0836
2019-04-30T09:59:22.745Z,74.3770
2019-04-30T10:01:51.234Z,74.2168
2019-04-30T10:02:59.360Z,75.4589
2019-04-30T10:04:10.266Z,74.1253
2019-04-30T10:05:16.618Z,76.2188
2019-04-30T10:06:22.398Z,74.4808
2019-04-30T10:08:48.305Z,74.5785
2019-04-30T10:11:13.272Z,74.3435
2019-04-30T10:13:36.237Z,74.5678
2019-04-30T10:14:42.450Z,74.2534
2019-04-30T10:19:45.449Z,71.9265
2019-04-30T10:20:51.306Z,71.3130
2019-04-30T10:21:58.975Z,71.4412
2019-04-30T10:24:43.305Z,69.0700
2019-04-30T10:27:07.064Z,68.5725
2019-04-30T10:32:32.310Z,66.7735
2019-04-30T10:33:39.471Z,67.6280
2019-04-30T10:34:44.257Z,64.4556
2019-04-30T10:37:22.336Z,63.1342
2019-04-30T10:38:28.902Z,65.0095
2019-04-30T10:41:02.338Z,69.2897
2019-04-30T10:43:24.388Z,70.2327
2019-04-30T10:44:33.330Z,69.2439
2019-04-30T10:45:38.963Z,69.9962
2019-04-30T10:46:44.239Z,71.7906
2019-04-30T10:47:49.388Z,70.2571
2019-04-30T10:48:55.003Z,69.5140
2019-04-30T10:51:18.953Z,71.4137
2019-04-30T10:53:43.244Z,72.1050
2019-04-30T10:54:49.675Z,71.5511
2019-04-30T10:57:13.230Z,71.3451
2019-04-30T10:59:43.344Z,68.1682
2019-04-30T11:00:49.985Z,69.5964
2019-04-30T11:01:56.385Z,69.0608
2019-04-30T11:03:16.021Z,69.5872
2019-04-30T11:04:15.185Z,70.3624
2019-04-30T11:05:29.252Z,72.3171
2019-04-30T11:06:34.264Z,71.1635
2019-04-30T11:07:42.306Z,70.8751
2019-04-30T11:10:08.737Z,72.0638
2019-04-30T11:12:32.252Z,70.1015
2019-04-30T11:15:15.297Z,70.2007
2019-04-30T11:16:20.292Z,71.0399
2019-04-30T11:17:25.251Z,71.4504
2019-04-30T11:18:32.459Z,72.5948
2019-04-30T11:19:39.063Z,70.8614
2019-04-30T11:20:44.500Z,71.4504
2019-04-30T11:21:51.843Z,70.6783
2019-04-30T11:22:59.690Z,71.6747
2019-04-30T11:24:04.320Z,70.8843
2019-04-30T11:26:26.593Z,69.4270
2019-04-30T11:27:55.877Z,69.6651
2019-04-30T11:29:02.503Z,70.4250
2019-04-30T11:31:27.145Z,71.9051
2019-04-30T11:32:39.610Z,70.0969
